createdAt,value
2018-06-23T00:01:33.192Z,99.90
2018-06-23T00:04:10.585Z,99.90
2018-06-23T00:06:47.992Z,99.90
2018-06-23T00:09:25.274Z,99.90
2018-06-23T00:12:02.872Z,99.90
2018-06-23T00:14:40.292Z,99.90
2018-06-23T00:17:18.024Z,99.90
2018-06-23T00:19:55.352Z,99.90
2018-06-23T00:22:32.732Z,99.90
2018-06-23T00:25:10.132Z,99.90
2018-06-23T00:27:47.592Z,99.90
2018-06-23T00:30:24.857Z,99.90
2018-06-23T00:33:02.255Z,99.90
2018-06-23T00:35:39.532Z,99.90
2018-06-23T00:38:17.024Z,99.90
2018-06-23T00:40:54.160Z,99.90
2018-06-23T00:43:31.804Z,99.90
2018-06-23T00:46:09.136Z,99.90
2018-06-23T00:48:46.520Z,99.90
2018-06-23T00:51:23.872Z,99.90
2018-06-23T00:54:01.334Z,99.90
2018-06-23T00:56:38.697Z,99.90
2018-06-23T00:59:32.672Z,99.90
2018-06-23T01:02:10.392Z,99.90
2018-06-23T01:04:47.604Z,99.90
2018-06-23T01:07:24.936Z,99.90
2018-06-23T01:10:02.366Z,99.90
2018-06-23T01:12:39.785Z,99.90
2018-06-23T01:15:17.157Z,99.90
2018-06-23T01:17:54.496Z,99.90
2018-06-23T01:20:31.912Z,99.90
2018-06-23T01:23:09.230Z,99.90
2018-06-23T01:25:46.804Z,99.90
2018-06-23T01:28:24.007Z,99.90
2018-06-23T01:31:01.332Z,99.90
2018-06-23T01:33:38.524Z,99.90
2018-06-23T01:36:15.852Z,99.90
2018-06-23T01:38:53.145Z,99.90
2018-06-23T01:41:30.647Z,99.90
2018-06-23T01:46:44.764Z,99.90
2018-06-23T01:49:22.045Z,99.90
2018-06-23T01:51:59.513Z,99.90
2018-06-23T01:54:36.752Z,99.90
2018-06-23T01:57:14.131Z,99.90
2018-06-23T01:59:51.472Z,99.90
2018-06-23T02:02:28.852Z,99.90
2018-06-23T02:05:06.236Z,99.90
2018-06-23T02:07:43.552Z,99.90
2018-06-23T02:10:20.767Z,99.90
2018-06-23T02:12:58.312Z,99.90
2018-06-23T02:15:40.712Z,99.90
2018-06-23T02:18:23.092Z,99.90
2018-06-23T02:21:05.436Z,99.90
2018-06-23T02:23:47.807Z,99.90
2018-06-23T02:26:30.328Z,99.90
2018-06-23T02:29:12.893Z,99.90
2018-06-23T02:31:55.150Z,99.90
2018-06-23T02:34:37.672Z,99.90
2018-06-23T02:37:14.974Z,99.90
2018-06-23T02:39:52.358Z,99.90
2018-06-23T02:42:29.788Z,99.90
2018-06-23T02:45:08.312Z,99.90
2018-06-23T02:47:45.776Z,99.90
2018-06-23T02:50:23.121Z,99.90
2018-06-23T02:53:00.472Z,99.90
2018-06-23T02:55:37.904Z,99.90
2018-06-23T02:58:15.332Z,99.90
2018-06-23T03:00:52.981Z,99.90
2018-06-23T03:03:30.232Z,99.90
2018-06-23T03:06:07.975Z,99.90
2018-06-23T03:08:45.360Z,99.90
2018-06-23T03:11:22.903Z,99.90
2018-06-23T03:14:00.224Z,99.90
2018-06-23T03:16:37.604Z,99.90
2018-06-23T03:19:15.186Z,99.90
2018-06-23T03:21:52.611Z,99.90
2018-06-23T03:24:29.919Z,99.90
2018-06-23T03:27:07.344Z,99.90
2018-06-23T03:29:44.666Z,99.90
2018-06-23T03:32:22.013Z,99.90
2018-06-23T03:34:59.412Z,99.90
2018-06-23T03:37:36.778Z,99.90
2018-06-23T03:40:14.293Z,99.90
2018-06-23T03:42:51.711Z,99.90
2018-06-23T03:45:29.032Z,99.90
2018-06-23T03:48:06.591Z,99.90
2018-06-23T03:50:44.061Z,99.90
2018-06-23T03:53:21.625Z,99.90
2018-06-23T03:55:59.140Z,99.90
2018-06-23T03:58:36.584Z,99.90
2018-06-23T04:01:13.928Z,99.90
2018-06-23T04:03:51.273Z,99.90
2018-06-23T04:06:28.573Z,99.90
2018-06-23T04:09:09.691Z,99.90
2018-06-23T04:11:46.965Z,99.90
2018-06-23T04:14:24.364Z,99.90
2018-06-23T04:17:01.853Z,99.90
2018-06-23T04:19:39.332Z,99.90
2018-06-23T04:22:16.747Z,99.90
2018-06-23T04:24:54.124Z,99.90
2018-06-23T04:27:31.637Z,99.90
2018-06-23T04:32:45.831Z,99.90
2018-06-23T04:35:23.392Z,99.90
2018-06-23T04:38:00.761Z,99.90
2018-06-23T04:40:38.119Z,99.90
2018-06-23T04:43:15.492Z,99.90
2018-06-23T04:45:52.820Z,99.90
2018-06-23T04:48:30.207Z,99.90
2018-06-23T04:51:07.776Z,99.90
2018-06-23T04:53:47.544Z,99.90
2018-06-23T04:56:24.877Z,99.90
2018-06-23T04:59:02.344Z,99.90
2018-06-23T05:01:39.924Z,99.90
2018-06-23T05:04:17.303Z,99.90
2018-06-23T05:06:54.698Z,99.90
2018-06-23T05:09:31.965Z,99.90
2018-06-23T05:12:09.381Z,99.90
2018-06-23T05:14:46.831Z,99.90
2018-06-23T05:17:24.311Z,99.90
2018-06-23T05:20:01.813Z,99.90
2018-06-23T05:22:39.752Z,99.90
2018-06-23T05:25:17.232Z,99.90
2018-06-23T05:27:54.575Z,99.90
2018-06-23T05:30:31.892Z,99.90
2018-06-23T05:33:09.312Z,99.90
2018-06-23T05:35:46.732Z,99.90
2018-06-23T05:38:24.271Z,99.90
2018-06-23T05:41:01.660Z,99.90
2018-06-23T05:43:38.943Z,99.90
2018-06-23T05:46:16.252Z,99.90
2018-06-23T05:48:57.363Z,99.90
2018-06-23T05:51:34.672Z,99.90
2018-06-23T05:54:12.105Z,99.90
2018-06-23T05:56:44.132Z,99.90
2018-06-23T05:59:17.010Z,99.90
2018-06-23T06:01:48.984Z,99.90
2018-06-23T06:04:21.083Z,99.90
2018-06-23T06:06:53.092Z,99.90
2018-06-23T06:09:25.018Z,99.90
2018-06-23T06:11:56.772Z,99.90
2018-06-23T06:14:28.712Z,99.90
2018-06-23T06:17:24.515Z,99.90
2018-06-23T06:19:57.608Z,99.90
2018-06-23T06:22:30.632Z,99.90
2018-06-23T06:25:02.638Z,99.90
2018-06-23T06:27:34.405Z,99.90
2018-06-23T06:30:09.739Z,99.90
2018-06-23T06:32:41.510Z,99.90
2018-06-23T06:35:13.504Z,99.90
2018-06-23T06:37:45.320Z,99.90
2018-06-23T06:40:17.183Z,99.90
2018-06-23T06:42:49.152Z,99.90
2018-06-23T06:45:21.213Z,99.90
2018-06-23T06:47:52.967Z,99.90
2018-06-23T06:50:24.844Z,99.90
2018-06-23T06:52:56.647Z,99.90
2018-06-23T06:55:28.855Z,99.90
2018-06-23T06:58:00.633Z,99.90
2018-06-23T07:00:32.492Z,99.90
2018-06-23T07:03:04.278Z,99.90
2018-06-23T07:05:36.219Z,99.90
2018-06-23T07:08:07.996Z,99.90
2018-06-23T07:10:39.898Z,99.90
2018-06-23T07:13:11.772Z,99.90
2018-06-23T07:15:43.717Z,99.90
2018-06-23T07:18:15.664Z,99.90
2018-06-23T07:20:47.672Z,99.90
2018-06-23T07:23:19.809Z,99.90
2018-06-23T07:25:51.766Z,99.90
2018-06-23T07:28:23.785Z,99.90
2018-06-23T07:30:55.829Z,99.90
2018-06-23T07:35:59.032Z,99.90
2018-06-23T07:38:31.024Z,99.90
2018-06-23T07:41:03.073Z,99.90
2018-06-23T07:43:34.964Z,99.90
2018-06-23T07:46:07.085Z,99.90
2018-06-23T07:48:39.010Z,99.90
2018-06-23T07:51:11.004Z,99.90
2018-06-23T07:53:43.232Z,99.90
2018-06-23T07:56:15.277Z,99.90
2018-06-23T07:58:47.248Z,99.90
2018-06-23T08:01:20.277Z,99.90
2018-06-23T08:03:52.197Z,99.90
2018-06-23T08:06:24.234Z,99.90
2018-06-23T08:08:56.052Z,99.90
2018-06-23T08:11:27.992Z,99.90
2018-06-23T08:13:59.865Z,99.90
2018-06-23T08:16:31.864Z,99.90
2018-06-23T08:19:04.103Z,99.90
2018-06-23T08:21:36.055Z,99.90
2018-06-23T08:26:39.533Z,99.90
2018-06-23T08:29:11.314Z,99.90
2018-06-23T08:31:43.373Z,99.90
2018-06-23T08:34:15.747Z,99.90
2018-06-23T08:36:47.926Z,99.90
2018-06-23T08:39:20.044Z,99.90
2018-06-23T08:41:51.932Z,99.90
2018-06-23T08:44:23.818Z,99.90
2018-06-23T08:46:55.765Z,99.90
2018-06-23T08:49:27.664Z,99.90
2018-06-23T08:51:59.645Z,99.90
2018-06-23T08:54:31.568Z,99.90
2018-06-23T08:57:03.668Z,99.70
2018-06-23T08:59:35.413Z,99.90
2018-06-23T09:02:07.684Z,99.90
2018-06-23T09:04:39.627Z,99.90
2018-06-23T09:07:11.634Z,99.90
2018-06-23T09:09:43.482Z,99.90
2018-06-23T09:12:15.532Z,99.90
2018-06-23T09:14:47.396Z,99.90
2018-06-23T09:17:19.457Z,99.90
2018-06-23T09:19:51.287Z,99.90
2018-06-23T09:22:23.233Z,99.90
2018-06-23T09:24:55.144Z,99.90
2018-06-23T09:27:27.232Z,99.90
2018-06-23T09:29:59.133Z,99.90
2018-06-23T09:32:31.252Z,99.90
2018-06-23T09:35:03.263Z,99.90
2018-06-23T09:37:35.372Z,99.90
2018-06-23T09:40:07.302Z,99.90
2018-06-23T09:42:39.576Z,99.90
2018-06-23T09:45:11.532Z,99.90
2018-06-23T09:47:43.613Z,99.90
2018-06-23T09:50:15.564Z,99.90
2018-06-23T09:52:47.632Z,99.90
2018-06-23T09:55:19.510Z,99.90
2018-06-23T09:57:51.488Z,99.90
2018-06-23T10:00:28.854Z,99.90
2018-06-23T10:03:02.273Z,99.90
2018-06-23T10:05:34.218Z,99.90
2018-06-23T10:08:06.185Z,99.90
2018-06-23T10:10:38.352Z,99.90
2018-06-23T10:13:10.425Z,99.90
2018-06-23T10:15:42.435Z,99.90
2018-06-23T10:18:14.852Z,99.90
2018-06-23T10:20:46.826Z,99.90
2018-06-23T10:23:18.724Z,99.90
2018-06-23T10:25:50.787Z,99.90
2018-06-23T10:28:22.817Z,99.90
2018-06-23T10:30:54.964Z,99.90
2018-06-23T10:33:26.828Z,99.90
2018-06-23T10:35:58.812Z,99.90
2018-06-23T10:38:30.805Z,99.90
2018-06-23T10:41:02.840Z,99.90
2018-06-23T10:43:34.886Z,99.90
2018-06-23T10:46:06.946Z,99.90
2018-06-23T10:48:38.940Z,99.90
2018-06-23T10:51:10.853Z,99.90
2018-06-23T10:53:42.894Z,99.90
2018-06-23T10:56:14.965Z,99.90
2018-06-23T10:58:46.951Z,99.90
2018-06-23T11:01:18.906Z,99.90
2018-06-23T11:03:50.860Z,99.90
2018-06-23T11:06:22.793Z,99.90
2018-06-23T11:08:54.744Z,99.90
2018-06-23T11:11:26.552Z,99.90
2018-06-23T11:13:58.585Z,99.90
2018-06-23T11:19:01.831Z,99.90
2018-06-23T11:21:33.867Z,99.90
2018-06-23T11:24:05.931Z,99.90
2018-06-23T11:26:38.133Z,99.90
2018-06-23T11:29:10.193Z,99.90
2018-06-23T11:31:42.228Z,99.90
2018-06-23T11:34:14.315Z,99.90
2018-06-23T11:36:46.452Z,99.90
2018-06-23T11:39:18.687Z,99.90
2018-06-23T11:41:51.012Z,99.90
2018-06-23T11:44:22.974Z,99.90
2018-06-23T11:46:54.965Z,99.90
2018-06-23T11:51:58.532Z,99.90
2018-06-23T11:57:01.882Z,99.90
2018-06-23T11:59:33.876Z,99.90
2018-06-23T12:02:05.874Z,99.90
2018-06-23T12:04:37.893Z,99.90
2018-06-23T12:07:09.875Z,99.90
2018-06-23T12:09:41.924Z,99.90
2018-06-23T12:12:13.871Z,99.90
2018-06-23T12:14:45.818Z,99.90
2018-06-23T12:17:17.863Z,99.90
2018-06-23T12:19:49.991Z,99.90
2018-06-23T12:22:22.072Z,99.90
2018-06-23T12:24:54.175Z,99.90
2018-06-23T12:27:26.164Z,99.90
2018-06-23T12:29:58.227Z,99.90
2018-06-23T12:32:30.156Z,99.90
2018-06-23T12:35:02.166Z,99.90
2018-06-23T12:40:06.480Z,99.90
2018-06-23T12:42:38.316Z,99.90
2018-06-23T12:45:10.252Z,99.90
2018-06-23T12:47:42.135Z,99.90
2018-06-23T12:50:14.178Z,99.90
2018-06-23T12:52:46.097Z,99.90
2018-06-23T12:55:17.996Z,99.90
2018-06-23T12:57:50.032Z,99.90
2018-06-23T13:00:22.116Z,99.90
2018-06-23T13:02:54.236Z,99.90
2018-06-23T13:05:26.393Z,99.90
2018-06-23T13:07:58.433Z,99.90
2018-06-23T13:10:30.593Z,99.90
2018-06-23T13:13:02.716Z,99.90
2018-06-23T13:15:34.805Z,99.90
2018-06-23T13:18:07.904Z,99.90
2018-06-23T13:20:41.146Z,99.90
2018-06-23T13:23:13.127Z,99.90
2018-06-23T13:25:45.131Z,99.90
2018-06-23T13:28:17.188Z,99.90
2018-06-23T13:30:49.253Z,99.90
2018-06-23T13:33:21.292Z,99.90
2018-06-23T13:35:53.552Z,99.90
2018-06-23T13:38:25.520Z,99.90
2018-06-23T13:40:57.663Z,99.90
2018-06-23T13:43:29.740Z,99.90
2018-06-23T13:48:33.161Z,99.90
2018-06-23T13:51:05.141Z,99.90
2018-06-23T13:53:37.115Z,99.90
2018-06-23T13:56:09.575Z,99.90
2018-06-23T13:58:41.493Z,99.90
2018-06-23T14:01:13.533Z,99.90
2018-06-23T14:03:45.461Z,99.90
2018-06-23T14:06:17.434Z,99.90
2018-06-23T14:08:49.344Z,99.90
2018-06-23T14:11:21.363Z,99.90
2018-06-23T14:13:53.238Z,99.90
2018-06-23T14:16:25.193Z,99.90
2018-06-23T14:18:57.107Z,99.90
2018-06-23T14:21:29.264Z,99.90
2018-06-23T14:24:01.404Z,99.90
2018-06-23T14:26:33.397Z,99.90
2018-06-23T14:29:05.392Z,99.90
2018-06-23T14:31:37.472Z,99.90
2018-06-23T14:34:09.284Z,99.90
2018-06-23T14:36:41.121Z,99.90
2018-06-23T14:41:44.454Z,99.90
2018-06-23T14:44:16.312Z,99.90
2018-06-23T14:46:48.383Z,99.90
2018-06-23T14:49:20.312Z,99.90
2018-06-23T14:51:52.233Z,99.90
2018-06-23T14:54:24.105Z,99.90
2018-06-23T14:56:56.005Z,99.90
2018-06-23T14:59:27.820Z,99.90
2018-06-23T15:02:00.156Z,99.90
2018-06-23T15:04:31.952Z,99.90
2018-06-23T15:07:03.853Z,99.90
2018-06-23T15:09:52.192Z,99.90
2018-06-23T15:12:40.533Z,99.90
2018-06-23T15:15:12.360Z,99.90
2018-06-23T15:17:44.906Z,99.90
2018-06-23T15:20:17.153Z,99.90
2018-06-23T15:22:49.046Z,99.90
2018-06-23T15:25:20.833Z,99.90
2018-06-23T15:27:52.688Z,99.90
2018-06-23T15:30:24.509Z,99.90
2018-06-23T15:32:56.636Z,99.90
2018-06-23T15:35:28.641Z,99.00
2018-06-23T15:38:00.680Z,98.90
2018-06-23T15:40:32.628Z,99.60
2018-06-23T15:43:05.412Z,97.80
2018-06-23T15:45:37.372Z,98.60
2018-06-23T15:48:09.635Z,98.40
2018-06-23T15:50:41.520Z,98.00
2018-06-23T15:53:13.455Z,97.30
2018-06-23T15:55:45.407Z,97.20
2018-06-23T15:58:17.372Z,94.50
2018-06-23T16:00:49.266Z,95.60
2018-06-23T16:03:21.172Z,96.60
2018-06-23T16:05:53.112Z,96.20
2018-06-23T16:08:25.648Z,96.00
2018-06-23T16:10:57.853Z,95.70
2018-06-23T16:13:29.871Z,96.80
2018-06-23T16:16:01.769Z,97.90
2018-06-23T16:18:33.812Z,99.90
2018-06-23T16:21:05.772Z,99.00
2018-06-23T16:23:38.041Z,98.20
2018-06-23T16:26:09.874Z,95.00
2018-06-23T16:28:41.853Z,97.80
2018-06-23T16:31:13.761Z,98.70
2018-06-23T16:33:45.961Z,96.60
2018-06-23T16:36:18.445Z,96.00
2018-06-23T16:38:50.518Z,95.50
2018-06-23T16:41:22.416Z,93.60
2018-06-23T16:43:54.309Z,96.70
2018-06-23T16:46:26.237Z,96.60
2018-06-23T16:48:58.332Z,97.00
2018-06-23T16:51:30.193Z,96.60
2018-06-23T16:54:02.751Z,96.50
2018-06-23T16:56:34.739Z,96.10
2018-06-23T16:59:06.757Z,96.80
2018-06-23T17:01:38.944Z,96.90
2018-06-23T17:04:10.937Z,95.40
2018-06-23T17:06:43.960Z,95.80
2018-06-23T17:09:15.843Z,96.10
2018-06-23T17:11:47.894Z,96.60
2018-06-23T17:14:20.036Z,97.10
2018-06-23T17:16:51.873Z,96.80
2018-06-23T17:19:23.987Z,98.40
2018-06-23T17:21:56.236Z,97.70
2018-06-23T17:24:28.251Z,97.60
2018-06-23T17:27:00.153Z,98.00
2018-06-23T17:29:32.085Z,97.70
2018-06-23T17:32:04.064Z,99.30
2018-06-23T17:34:36.036Z,99.90
2018-06-23T17:37:08.102Z,99.90
2018-06-23T17:39:40.003Z,99.90
2018-06-23T17:42:11.905Z,99.90
2018-06-23T17:44:43.828Z,99.40
2018-06-23T17:47:15.690Z,99.90
2018-06-23T17:49:47.593Z,99.90
2018-06-23T17:52:19.515Z,99.90
2018-06-23T17:54:51.955Z,98.60
2018-06-23T17:57:23.908Z,99.90
2018-06-23T17:59:55.855Z,99.90
2018-06-23T18:02:27.750Z,99.90
2018-06-23T18:04:59.632Z,99.90
2018-06-23T18:07:31.573Z,99.90
2018-06-23T18:10:03.633Z,99.00
2018-06-23T18:12:35.799Z,98.60
2018-06-23T18:15:08.067Z,99.70
2018-06-23T18:17:39.953Z,98.60
2018-06-23T18:20:11.874Z,99.20
2018-06-23T18:22:43.684Z,99.10
2018-06-23T18:25:16.811Z,99.90
2018-06-23T18:27:48.574Z,99.40
2018-06-23T18:30:20.524Z,99.70
2018-06-23T18:32:52.392Z,99.00
2018-06-23T18:35:24.360Z,99.00
2018-06-23T18:37:56.222Z,98.40
2018-06-23T18:40:28.104Z,98.10
2018-06-23T18:43:00.017Z,98.20
2018-06-23T18:45:31.815Z,98.80
2018-06-23T18:48:03.732Z,99.70
2018-06-23T18:50:35.697Z,99.90
2018-06-23T18:53:07.612Z,99.90
2018-06-23T18:55:39.833Z,99.90
2018-06-23T18:58:11.719Z,99.90
2018-06-23T19:00:43.743Z,99.90
2018-06-23T19:03:15.512Z,99.90
2018-06-23T19:05:47.436Z,99.90
2018-06-23T19:08:19.296Z,99.90
2018-06-23T19:10:51.233Z,99.90
2018-06-23T19:13:23.124Z,99.90
2018-06-23T19:15:55.089Z,99.90
2018-06-23T19:18:27.444Z,99.90
2018-06-23T19:20:59.563Z,99.90
2018-06-23T19:23:31.514Z,99.90
2018-06-23T19:26:03.629Z,99.90
2018-06-23T19:28:35.692Z,99.90
2018-06-23T19:31:08.052Z,99.90
2018-06-23T19:33:39.903Z,99.90
2018-06-23T19:36:11.833Z,99.90
2018-06-23T19:38:43.742Z,99.90
2018-06-23T19:41:29.164Z,99.90
2018-06-23T19:44:01.144Z,99.90
2018-06-23T19:46:33.047Z,99.90
2018-06-23T19:49:05.293Z,99.90
2018-06-23T19:51:37.232Z,99.90
2018-06-23T19:54:09.044Z,99.90
2018-06-23T19:56:41.068Z,99.90
2018-06-23T20:01:44.198Z,99.90
2018-06-23T20:06:47.592Z,99.90
2018-06-23T20:09:19.445Z,99.90
2018-06-23T20:11:51.365Z,99.90
2018-06-23T20:14:23.273Z,99.90
2018-06-23T20:16:55.328Z,99.90
2018-06-23T20:19:28.035Z,99.90
2018-06-23T20:24:31.361Z,99.90
2018-06-23T20:27:03.337Z,99.90
2018-06-23T20:29:36.895Z,99.90
2018-06-23T20:32:09.773Z,99.90
2018-06-23T20:34:41.701Z,99.90
2018-06-23T20:37:13.593Z,99.90
2018-06-23T20:39:45.932Z,99.90
2018-06-23T20:42:17.909Z,99.90
2018-06-23T20:44:51.837Z,99.90
2018-06-23T20:47:23.774Z,99.90
2018-06-23T20:49:55.684Z,99.90
2018-06-23T20:52:27.622Z,99.90
2018-06-23T20:54:59.505Z,99.90
2018-06-23T20:57:31.377Z,99.90
2018-06-23T21:00:03.212Z,99.90
2018-06-23T21:02:35.141Z,99.90
2018-06-23T21:05:07.032Z,99.90
2018-06-23T21:07:38.992Z,99.90
2018-06-23T21:10:21.413Z,99.90
2018-06-23T21:12:53.455Z,99.90
2018-06-23T21:15:25.333Z,99.90
2018-06-23T21:20:28.525Z,99.90
2018-06-23T21:23:00.652Z,99.90
2018-06-23T21:25:32.849Z,99.90
2018-06-23T21:28:04.914Z,99.90
2018-06-23T21:30:36.767Z,99.90
2018-06-23T21:33:08.806Z,99.90
2018-06-23T21:35:40.758Z,99.90
2018-06-23T21:38:12.723Z,99.90
2018-06-23T21:40:44.615Z,99.90
2018-06-23T21:43:16.642Z,99.90
2018-06-23T21:45:49.572Z,99.90
2018-06-23T21:48:21.504Z,99.90
2018-06-23T21:50:53.408Z,99.90
2018-06-23T21:53:25.469Z,99.90
2018-06-23T21:55:58.070Z,99.90
2018-06-23T21:58:30.108Z,99.90
2018-06-23T22:01:02.102Z,99.90
2018-06-23T22:03:34.104Z,99.90
2018-06-23T22:06:05.993Z,99.90
2018-06-23T22:08:37.949Z,99.90
2018-06-23T22:11:09.933Z,99.90
2018-06-23T22:13:42.052Z,99.90
2018-06-23T22:16:13.997Z,99.90
2018-06-23T22:18:45.889Z,99.90
2018-06-23T22:21:17.725Z,99.90
2018-06-23T22:23:49.760Z,99.90
2018-06-23T22:26:21.655Z,99.90
2018-06-23T22:28:53.712Z,99.90
2018-06-23T22:31:25.612Z,99.90
2018-06-23T22:33:57.597Z,99.90
2018-06-23T22:36:29.495Z,99.90
2018-06-23T22:39:01.345Z,99.90
2018-06-23T22:41:33.220Z,99.90
2018-06-23T22:44:05.280Z,99.90
2018-06-23T22:46:37.332Z,99.90
2018-06-23T22:49:09.267Z,99.90
2018-06-23T22:51:41.064Z,99.90
2018-06-23T22:54:13.011Z,99.90
2018-06-23T22:56:44.797Z,99.90
2018-06-23T22:59:16.713Z,99.90
2018-06-23T23:01:48.534Z,99.90
2018-06-23T23:04:20.372Z,99.90
2018-06-23T23:06:52.213Z,99.90
2018-06-23T23:09:24.094Z,99.90
2018-06-23T23:11:55.976Z,99.90
2018-06-23T23:14:28.072Z,99.90
2018-06-23T23:16:59.893Z,99.90
2018-06-23T23:19:31.749Z,99.90
2018-06-23T23:22:03.611Z,99.90
2018-06-23T23:24:35.492Z,99.90
2018-06-23T23:27:07.373Z,99.90
2018-06-23T23:29:39.223Z,99.90
2018-06-23T23:32:11.847Z,99.90
2018-06-23T23:34:43.813Z,99.90
2018-06-23T23:37:15.764Z,99.90
2018-06-23T23:39:48.857Z,99.90
2018-06-23T23:42:20.713Z,99.90
2018-06-23T23:44:52.655Z,99.90
2018-06-23T23:47:24.498Z,99.90
2018-06-23T23:49:56.411Z,99.90
2018-06-23T23:52:28.283Z,99.90
2018-06-23T23:55:00.192Z,99.90
